sensor_id;sensor_type;location;lat;lon;timestamp;pressure;altitude;pressure_sealevel;temperature;humidity
50368;BME280;36281;34.132;-118.018;2024-02-14T00:01:18;99974.38;;;19.34;47.99
50368;BME280;36281;34.132;-118.018;2024-02-14T00:03:47;99963.63;;;19.39;47.63
50368;BME280;36281;34.132;-118.018;2024-02-14T00:06:16;99972.25;;;19.41;47.99
50368;BME280;36281;34.132;-118.018;2024-02-14T00:08:45;99977.06;;;19.29;48.22
50368;BME280;36281;34.132;-118.018;2024-02-14T00:11:16;99971.94;;;19.12;49.00
50368;BME280;36281;34.132;-118.018;2024-02-14T00:13:45;99979.19;;;19.17;49.06
50368;BME280;36281;34.132;-118.018;2024-02-14T00:16:14;99985.66;;;19.16;48.93
50368;BME280;36281;34.132;-118.018;2024-02-14T00:18:43;99986.72;;;19.09;49.90
50368;BME280;36281;34.132;-118.018;2024-02-14T00:21:13;99974.88;;;19.00;50.19
50368;BME280;36281;34.132;-118.018;2024-02-14T00:23:42;99953.38;;;18.85;49.78
50368;BME280;36281;34.132;-118.018;2024-02-14T00:26:12;99970.81;;;18.93;50.07
50368;BME280;36281;34.132;-118.018;2024-02-14T00:28:43;99984.19;;;18.82;49.90
50368;BME280;36281;34.132;-118.018;2024-02-14T00:31:12;99979.88;;;18.76;50.56
50368;BME280;36281;34.132;-118.018;2024-02-14T00:33:41;99994.34;;;18.70;50.27
50368;BME280;36281;34.132;-118.018;2024-02-14T00:36:10;99993.41;;;18.49;50.91
50368;BME280;36281;34.132;-118.018;2024-02-14T00:38:39;99993.38;;;18.44;51.16
50368;BME280;36281;34.132;-118.018;2024-02-14T00:41:11;99997.94;;;18.44;51.10
50368;BME280;36281;34.132;-118.018;2024-02-14T00:43:40;99999.28;;;18.41;51.61
50368;BME280;36281;34.132;-118.018;2024-02-14T00:46:16;99999.28;;;18.41;51.77
50368;BME280;36281;34.132;-118.018;2024-02-14T00:48:45;99994.13;;;18.34;51.38
50368;BME280;36281;34.132;-118.018;2024-02-14T00:51:15;100001.34;;;18.29;51.67
50368;BME280;36281;34.132;-118.018;2024-02-14T00:53:44;100006.09;;;18.17;52.04
50368;BME280;36281;34.132;-118.018;2024-02-14T00:56:13;100004.97;;;18.07;52.09
50368;BME280;36281;34.132;-118.018;2024-02-14T00:58:42;100007.59;;;18.02;52.29
50368;BME280;36281;34.132;-118.018;2024-02-14T01:01:13;100011.56;;;17.95;52.92
50368;BME280;36281;34.132;-118.018;2024-02-14T01:03:42;100020.88;;;17.87;52.94
50368;BME280;36281;34.132;-118.018;2024-02-14T01:06:11;100014.41;;;17.83;53.13
50368;BME280;36281;34.132;-118.018;2024-02-14T01:08:40;100025.84;;;17.73;53.39
50368;BME280;36281;34.132;-118.018;2024-02-14T01:11:10;100031.84;;;17.58;54.12
50368;BME280;36281;34.132;-118.018;2024-02-14T01:14:02;100037.09;;;17.48;54.01
50368;BME280;36281;34.132;-118.018;2024-02-14T01:16:54;100045.59;;;17.40;54.79
50368;BME280;36281;34.132;-118.018;2024-02-14T01:19:24;100046.06;;;17.32;55.08
50368;BME280;36281;34.132;-118.018;2024-02-14T01:21:57;100051.91;;;17.29;54.94
50368;BME280;36281;34.132;-118.018;2024-02-14T01:24:26;100049.69;;;17.21;55.40
50368;BME280;36281;34.132;-118.018;2024-02-14T01:26:56;100056.97;;;17.03;56.26
50368;BME280;36281;34.132;-118.018;2024-02-14T01:29:25;100061.44;;;16.98;56.55
50368;BME280;36281;34.132;-118.018;2024-02-14T01:31:56;100067.16;;;16.85;57.04
50368;BME280;36281;34.132;-118.018;2024-02-14T01:34:25;100063.06;;;16.77;57.15
50368;BME280;36281;34.132;-118.018;2024-02-14T01:36:54;100066.69;;;16.71;57.09
50368;BME280;36281;34.132;-118.018;2024-02-14T01:39:23;100068.78;;;16.69;57.23
50368;BME280;36281;34.132;-118.018;2024-02-14T01:41:52;100066.53;;;16.61;57.82
50368;BME280;36281;34.132;-118.018;2024-02-14T01:44:21;100069.91;;;16.51;58.25
50368;BME280;36281;34.132;-118.018;2024-02-14T01:46:50;100068.34;;;16.38;58.62
50368;BME280;36281;34.132;-118.018;2024-02-14T01:49:23;100066.66;;;16.32;59.05
50368;BME280;36281;34.132;-118.018;2024-02-14T01:51:52;100072.34;;;16.19;60.04
50368;BME280;36281;34.132;-118.018;2024-02-14T01:54:21;100075.31;;;16.06;61.25
50368;BME280;36281;34.132;-118.018;2024-02-14T01:56:50;100076.47;;;16.10;61.18
50368;BME280;36281;34.132;-118.018;2024-02-14T01:59:20;100083.88;;;15.91;61.84
50368;BME280;36281;34.132;-118.018;2024-02-14T02:01:49;100087.78;;;15.83;61.82
50368;BME280;36281;34.132;-118.018;2024-02-14T02:04:20;100083.41;;;15.77;62.71
50368;BME280;36281;34.132;-118.018;2024-02-14T02:06:51;100092.03;;;15.67;62.89
50368;BME280;36281;34.132;-118.018;2024-02-14T02:09:24;100090.66;;;15.65;63.24
50368;BME280;36281;34.132;-118.018;2024-02-14T02:11:53;100099.59;;;15.59;63.74
50368;BME280;36281;34.132;-118.018;2024-02-14T02:14:24;100100.53;;;15.52;63.91
50368;BME280;36281;34.132;-118.018;2024-02-14T02:16:54;100112.31;;;15.40;64.29
50368;BME280;36281;34.132;-118.018;2024-02-14T02:19:23;100111.53;;;15.28;65.00
50368;BME280;36281;34.132;-118.018;2024-02-14T02:21:54;100114.31;;;15.21;65.63
50368;BME280;36281;34.132;-118.018;2024-02-14T02:24:25;100118.31;;;15.07;66.12
50368;BME280;36281;34.132;-118.018;2024-02-14T02:26:54;100120.63;;;15.03;66.33
50368;BME280;36281;34.132;-118.018;2024-02-14T02:29:25;100125.75;;;14.93;66.50
50368;BME280;36281;34.132;-118.018;2024-02-14T02:31:54;100137.00;;;14.83;67.11
50368;BME280;36281;34.132;-118.018;2024-02-14T02:34:23;100141.06;;;14.74;67.81
50368;BME280;36281;34.132;-118.018;2024-02-14T02:36:52;100141.41;;;14.66;68.34
50368;BME280;36281;34.132;-118.018;2024-02-14T02:39:21;100144.19;;;14.59;68.66
50368;BME280;36281;34.132;-118.018;2024-02-14T02:41:52;100152.50;;;14.51;69.10
50368;BME280;36281;34.132;-118.018;2024-02-14T02:44:23;100157.34;;;14.42;69.76
50368;BME280;36281;34.132;-118.018;2024-02-14T02:46:53;100150.50;;;14.35;70.55
50368;BME280;36281;34.132;-118.018;2024-02-14T02:49:22;100156.50;;;14.30;70.43
50368;BME280;36281;34.132;-118.018;2024-02-14T02:51:51;100163.19;;;14.21;70.83
50368;BME280;36281;34.132;-118.018;2024-02-14T02:54:20;100161.09;;;14.11;71.34
50368;BME280;36281;34.132;-118.018;2024-02-14T02:56:53;100171.03;;;14.04;72.07
50368;BME280;36281;34.132;-118.018;2024-02-14T02:59:22;100175.75;;;14.02;72.59
50368;BME280;36281;34.132;-118.018;2024-02-14T03:01:52;100168.13;;;13.94;72.88
50368;BME280;36281;34.132;-118.018;2024-02-14T03:04:21;100177.97;;;13.93;72.75
50368;BME280;36281;34.132;-118.018;2024-02-14T03:07:03;100179.97;;;13.80;73.51
50368;BME280;36281;34.132;-118.018;2024-02-14T03:09:37;100177.56;;;13.78;73.87
50368;BME280;36281;34.132;-118.018;2024-02-14T03:12:10;100185.41;;;13.73;74.47
50368;BME280;36281;34.132;-118.018;2024-02-14T03:14:39;100185.69;;;13.65;74.46
50368;BME280;36281;34.132;-118.018;2024-02-14T03:17:09;100193.09;;;13.63;75.40
50368;BME280;36281;34.132;-118.018;2024-02-14T03:19:39;100199.22;;;13.63;75.25
50368;BME280;36281;34.132;-118.018;2024-02-14T03:22:09;100207.28;;;13.57;76.00
50368;BME280;36281;34.132;-118.018;2024-02-14T03:24:38;100208.09;;;13.57;76.54
50368;BME280;36281;34.132;-118.018;2024-02-14T03:27:09;100213.88;;;13.54;76.59
50368;BME280;36281;34.132;-118.018;2024-02-14T03:29:38;100212.44;;;13.52;77.11
50368;BME280;36281;34.132;-118.018;2024-02-14T03:32:07;100219.47;;;13.46;78.32
50368;BME280;36281;34.132;-118.018;2024-02-14T03:34:37;100218.94;;;13.37;78.10
50368;BME280;36281;34.132;-118.018;2024-02-14T03:37:06;100214.91;;;13.35;78.96
50368;BME280;36281;34.132;-118.018;2024-02-14T03:39:35;100221.09;;;13.29;79.06
50368;BME280;36281;34.132;-118.018;2024-02-14T03:42:05;100228.88;;;13.30;79.21
50368;BME280;36281;34.132;-118.018;2024-02-14T03:44:37;100227.94;;;13.18;80.64
50368;BME280;36281;34.132;-118.018;2024-02-14T03:47:06;100230.66;;;13.11;80.30
50368;BME280;36281;34.132;-118.018;2024-02-14T03:49:35;100233.53;;;13.10;80.16
50368;BME280;36281;34.132;-118.018;2024-02-14T03:52:05;100229.53;;;13.01;80.81
50368;BME280;36281;34.132;-118.018;2024-02-14T03:54:38;100231.22;;;12.95;81.07
50368;BME280;36281;34.132;-118.018;2024-02-14T03:57:07;100241.84;;;12.95;81.66
50368;BME280;36281;34.132;-118.018;2024-02-14T03:59:39;100241.91;;;12.88;81.93
50368;BME280;36281;34.132;-118.018;2024-02-14T04:02:08;100241.75;;;12.83;82.19
50368;BME280;36281;34.132;-118.018;2024-02-14T04:04:38;100245.72;;;12.74;82.92
50368;BME280;36281;34.132;-118.018;2024-02-14T04:07:08;100243.25;;;12.73;83.11
50368;BME280;36281;34.132;-118.018;2024-02-14T04:09:37;100239.59;;;12.67;83.18
50368;BME280;36281;34.132;-118.018;2024-02-14T04:12:07;100248.44;;;12.61;83.29
50368;BME280;36281;34.132;-118.018;2024-02-14T04:14:40;100247.31;;;12.50;83.76
50368;BME280;36281;34.132;-118.018;2024-02-14T04:17:09;100226.00;;;12.25;85.34
50368;BME280;36281;34.132;-118.018;2024-02-14T04:19:40;100251.63;;;12.45;84.50
50368;BME280;36281;34.132;-118.018;2024-02-14T04:22:09;100256.94;;;12.45;84.79
50368;BME280;36281;34.132;-118.018;2024-02-14T04:24:38;100256.97;;;12.38;85.37
50368;BME280;36281;34.132;-118.018;2024-02-14T04:27:07;100269.03;;;12.40;85.33
50368;BME280;36281;34.132;-118.018;2024-02-14T04:29:36;100264.56;;;12.34;86.02
50368;BME280;36281;34.132;-118.018;2024-02-14T04:32:07;100262.09;;;12.33;86.61
50368;BME280;36281;34.132;-118.018;2024-02-14T04:34:37;100268.91;;;12.29;86.78
50368;BME280;36281;34.132;-118.018;2024-02-14T04:37:08;100269.72;;;12.29;86.00
50368;BME280;36281;34.132;-118.018;2024-02-14T04:39:41;100273.81;;;12.25;86.86
50368;BME280;36281;34.132;-118.018;2024-02-14T04:42:11;100284.44;;;12.25;87.23
50368;BME280;36281;34.132;-118.018;2024-02-14T04:44:40;100285.66;;;12.29;87.00
50368;BME280;36281;34.132;-118.018;2024-02-14T04:47:11;100279.78;;;12.14;87.58
50368;BME280;36281;34.132;-118.018;2024-02-14T04:49:41;100284.53;;;12.05;87.61
50368;BME280;36281;34.132;-118.018;2024-02-14T04:52:10;100259.69;;;11.86;87.51
50368;BME280;36281;34.132;-118.018;2024-02-14T04:54:39;100283.34;;;11.95;88.75
50368;BME280;36281;34.132;-118.018;2024-02-14T04:57:08;100285.38;;;11.99;88.70
50368;BME280;36281;34.132;-118.018;2024-02-14T04:59:37;100287.03;;;11.94;88.59
50368;BME280;36281;34.132;-118.018;2024-02-14T05:02:06;100293.16;;;11.87;88.76
50368;BME280;36281;34.132;-118.018;2024-02-14T05:04:37;100295.63;;;11.82;90.10
50368;BME280;36281;34.132;-118.018;2024-02-14T05:07:07;100295.00;;;11.87;88.96
50368;BME280;36281;34.132;-118.018;2024-02-14T05:09:37;100291.72;;;11.78;89.09
50368;BME280;36281;34.132;-118.018;2024-02-14T05:12:06;100297.25;;;11.77;89.94
50368;BME280;36281;34.132;-118.018;2024-02-14T05:14:39;100300.34;;;11.74;90.12
50368;BME280;36281;34.132;-118.018;2024-02-14T05:17:09;100299.31;;;11.68;91.85
50368;BME280;36281;34.132;-118.018;2024-02-14T05:19:41;100294.63;;;11.63;91.82
50368;BME280;36281;34.132;-118.018;2024-02-14T05:22:11;100303.19;;;11.65;91.61
50368;BME280;36281;34.132;-118.018;2024-02-14T05:24:40;100298.31;;;11.62;92.92
50368;BME280;36281;34.132;-118.018;2024-02-14T05:27:09;100301.78;;;11.63;92.77
50368;BME280;36281;34.132;-118.018;2024-02-14T05:29:39;100300.97;;;11.56;92.81
50368;BME280;36281;34.132;-118.018;2024-02-14T05:32:08;100307.13;;;11.50;92.54
50368;BME280;36281;34.132;-118.018;2024-02-14T05:34:41;100315.06;;;11.56;92.56
50368;BME280;36281;34.132;-118.018;2024-02-14T05:37:11;100314.44;;;11.48;92.64
50368;BME280;36281;34.132;-118.018;2024-02-14T05:39:40;100310.38;;;11.38;93.03
50368;BME280;36281;34.132;-118.018;2024-02-14T05:42:09;100314.66;;;11.46;92.32
50368;BME280;36281;34.132;-118.018;2024-02-14T05:44:38;100321.81;;;11.39;92.58
50368;BME280;36281;34.132;-118.018;2024-02-14T05:47:09;100319.38;;;11.37;92.17
50368;BME280;36281;34.132;-118.018;2024-02-14T05:49:41;100322.22;;;11.43;91.52
50368;BME280;36281;34.132;-118.018;2024-02-14T05:52:11;100322.25;;;11.29;92.57
50368;BME280;36281;34.132;-118.018;2024-02-14T05:54:40;100327.72;;;11.28;92.37
50368;BME280;36281;34.132;-118.018;2024-02-14T05:57:09;100318.38;;;11.25;92.03
50368;BME280;36281;34.132;-118.018;2024-02-14T05:59:38;100321.41;;;11.16;92.44
50368;BME280;36281;34.132;-118.018;2024-02-14T06:02:07;100324.69;;;11.11;92.53
50368;BME280;36281;34.132;-118.018;2024-02-14T06:04:38;100320.22;;;11.05;92.66
50368;BME280;36281;34.132;-118.018;2024-02-14T06:07:09;100333.84;;;11.02;93.15
50368;BME280;36281;34.132;-118.018;2024-02-14T06:09:40;100331.59;;;10.99;93.17
50368;BME280;36281;34.132;-118.018;2024-02-14T06:12:09;100325.09;;;11.01;92.16
50368;BME280;36281;34.132;-118.018;2024-02-14T06:14:38;100325.47;;;10.98;92.93
50368;BME280;36281;34.132;-118.018;2024-02-14T06:17:07;100321.19;;;10.97;92.55
50368;BME280;36281;34.132;-118.018;2024-02-14T06:19:36;100332.22;;;10.94;93.10
50368;BME280;36281;34.132;-118.018;2024-02-14T06:22:09;100328.94;;;10.92;92.78
50368;BME280;36281;34.132;-118.018;2024-02-14T06:24:39;100330.19;;;10.90;93.50
50368;BME280;36281;34.132;-118.018;2024-02-14T06:27:08;100330.97;;;10.83;93.50
50368;BME280;36281;34.132;-118.018;2024-02-14T06:29:37;100325.06;;;10.88;92.85
50368;BME280;36281;34.132;-118.018;2024-02-14T06:32:07;100329.34;;;10.82;93.25
50368;BME280;36281;34.132;-118.018;2024-02-14T06:34:36;100328.31;;;10.83;93.00
50368;BME280;36281;34.132;-118.018;2024-02-14T06:37:05;100318.75;;;10.82;92.49
50368;BME280;36281;34.132;-118.018;2024-02-14T06:39:36;100333.22;;;10.80;92.79
50368;BME280;36281;34.132;-118.018;2024-02-14T06:42:05;100336.88;;;10.72;92.72
50368;BME280;36281;34.132;-118.018;2024-02-14T06:44:35;100326.66;;;10.63;93.18
50368;BME280;36281;34.132;-118.018;2024-02-14T06:47:04;100328.50;;;10.62;92.29
50368;BME280;36281;34.132;-118.018;2024-02-14T06:49:33;100325.03;;;10.55;92.59
50368;BME280;36281;34.132;-118.018;2024-02-14T06:52:02;100333.56;;;10.50;93.20
50368;BME280;36281;34.132;-118.018;2024-02-14T06:54:31;100331.91;;;10.43;94.06
50368;BME280;36281;34.132;-118.018;2024-02-14T06:57:02;100343.13;;;10.45;93.66
50368;BME280;36281;34.132;-118.018;2024-02-14T06:59:32;100339.03;;;10.42;93.70
50368;BME280;36281;34.132;-118.018;2024-02-14T07:02:01;100336.75;;;10.32;94.13
50368;BME280;36281;34.132;-118.018;2024-02-14T07:04:40;100343.88;;;10.25;95.22
50368;BME280;36281;34.132;-118.018;2024-02-14T07:07:09;100344.47;;;10.27;94.72
50368;BME280;36281;34.132;-118.018;2024-02-14T07:09:39;100342.47;;;10.29;94.94
50368;BME280;36281;34.132;-118.018;2024-02-14T07:12:10;100342.06;;;10.32;95.44
50368;BME280;36281;34.132;-118.018;2024-02-14T07:14:39;100345.94;;;10.37;95.47
50368;BME280;36281;34.132;-118.018;2024-02-14T07:17:08;100350.66;;;10.41;95.78
50368;BME280;36281;34.132;-118.018;2024-02-14T07:19:37;100354.31;;;10.47;95.38
50368;BME280;36281;34.132;-118.018;2024-02-14T07:22:07;100355.78;;;10.49;95.74
50368;BME280;36281;34.132;-118.018;2024-02-14T07:24:37;100357.41;;;10.57;95.23
50368;BME280;36281;34.132;-118.018;2024-02-14T07:27:07;100362.16;;;10.75;95.39
50368;BME280;36281;34.132;-118.018;2024-02-14T07:29:40;100360.91;;;10.71;96.26
50368;BME280;36281;34.132;-118.018;2024-02-14T07:32:09;100357.47;;;10.77;96.25
50368;BME280;36281;34.132;-118.018;2024-02-14T07:34:39;100353.56;;;10.73;96.92
50368;BME280;36281;34.132;-118.018;2024-02-14T07:37:09;100356.06;;;10.81;97.06
50368;BME280;36281;34.132;-118.018;2024-02-14T07:39:38;100364.81;;;10.88;97.26
50368;BME280;36281;34.132;-118.018;2024-02-14T07:42:07;100357.06;;;10.86;98.23
50368;BME280;36281;34.132;-118.018;2024-02-14T07:44:36;100362.59;;;10.92;98.27
50368;BME280;36281;34.132;-118.018;2024-02-14T07:47:07;100350.97;;;10.93;98.38
50368;BME280;36281;34.132;-118.018;2024-02-14T07:49:36;100361.16;;;11.02;98.22
50368;BME280;36281;34.132;-118.018;2024-02-14T07:52:06;100363.63;;;11.17;98.54
50368;BME280;36281;34.132;-118.018;2024-02-14T07:54:35;100359.13;;;11.18;98.24
50368;BME280;36281;34.132;-118.018;2024-02-14T07:57:04;100356.28;;;11.12;99.69
50368;BME280;36281;34.132;-118.018;2024-02-14T07:59:34;100365.28;;;11.25;98.68
50368;BME280;36281;34.132;-118.018;2024-02-14T08:02:03;100367.72;;;11.26;98.88
50368;BME280;36281;34.132;-118.018;2024-02-14T08:04:33;100367.91;;;11.31;99.00
50368;BME280;36281;34.132;-118.018;2024-02-14T08:07:03;100372.00;;;11.34;98.69
50368;BME280;36281;34.132;-118.018;2024-02-14T08:09:32;100371.38;;;11.38;98.76
50368;BME280;36281;34.132;-118.018;2024-02-14T08:12:01;100366.91;;;11.39;98.81
50368;BME280;36281;34.132;-118.018;2024-02-14T08:14:31;100360.38;;;11.55;98.01
50368;BME280;36281;34.132;-118.018;2024-02-14T08:17:00;100365.47;;;11.50;98.21
50368;BME280;36281;34.132;-118.018;2024-02-14T08:19:29;100362.59;;;11.58;98.37
50368;BME280;36281;34.132;-118.018;2024-02-14T08:22:00;100367.69;;;11.53;98.21
50368;BME280;36281;34.132;-118.018;2024-02-14T08:24:29;100365.84;;;11.53;98.84
50368;BME280;36281;34.132;-118.018;2024-02-14T08:26:58;100365.25;;;11.58;98.25
50368;BME280;36281;34.132;-118.018;2024-02-14T08:29:28;100365.47;;;11.56;98.22
50368;BME280;36281;34.132;-118.018;2024-02-14T08:31:57;100363.00;;;11.61;98.16
50368;BME280;36281;34.132;-118.018;2024-02-14T08:34:26;100362.00;;;11.56;99.03
50368;BME280;36281;34.132;-118.018;2024-02-14T08:36:55;100362.81;;;11.56;98.43
50368;BME280;36281;34.132;-118.018;2024-02-14T08:39:26;100362.81;;;11.56;98.11
50368;BME280;36281;34.132;-118.018;2024-02-14T08:41:55;100364.25;;;11.59;97.32
50368;BME280;36281;34.132;-118.018;2024-02-14T08:44:24;100361.78;;;11.57;97.75
50368;BME280;36281;34.132;-118.018;2024-02-14T08:46:53;100356.47;;;11.57;97.73
50368;BME280;36281;34.132;-118.018;2024-02-14T08:49:23;100366.91;;;11.59;97.46
50368;BME280;36281;34.132;-118.018;2024-02-14T08:51:52;100354.22;;;11.61;97.35
50368;BME280;36281;34.132;-118.018;2024-02-14T08:54:21;100353.00;;;11.70;96.61
50368;BME280;36281;34.132;-118.018;2024-02-14T08:56:53;100364.63;;;11.69;96.31
50368;BME280;36281;34.132;-118.018;2024-02-14T08:59:24;100359.50;;;11.68;95.71
50368;BME280;36281;34.132;-118.018;2024-02-14T09:01:53;100360.34;;;11.61;96.01
50368;BME280;36281;34.132;-118.018;2024-02-14T09:04:22;100357.09;;;11.59;96.44
50368;BME280;36281;34.132;-118.018;2024-02-14T09:06:52;100366.28;;;11.57;96.63
50368;BME280;36281;34.132;-118.018;2024-02-14T09:09:21;100362.22;;;11.54;96.89
50368;BME280;36281;34.132;-118.018;2024-02-14T09:11:50;100364.66;;;11.56;96.90
50368;BME280;36281;34.132;-118.018;2024-02-14T09:14:21;100371.56;;;11.70;96.57
50368;BME280;36281;34.132;-118.018;2024-02-14T09:16:53;100363.19;;;11.67;95.65
50368;BME280;36281;34.132;-118.018;2024-02-14T09:19:22;100367.88;;;11.71;95.59
50368;BME280;36281;34.132;-118.018;2024-02-14T09:21:51;100372.41;;;11.64;96.35
50368;BME280;36281;34.132;-118.018;2024-02-14T09:24:20;100371.78;;;11.62;96.79
50368;BME280;36281;34.132;-118.018;2024-02-14T09:26:50;100361.34;;;11.67;96.38
50368;BME280;36281;34.132;-118.018;2024-02-14T09:29:20;100369.94;;;11.69;96.65
50368;BME280;36281;34.132;-118.018;2024-02-14T09:31:50;100370.34;;;11.66;97.01
50368;BME280;36281;34.132;-118.018;2024-02-14T09:34:20;100367.91;;;11.64;97.59
50368;BME280;36281;34.132;-118.018;2024-02-14T09:36:50;100374.63;;;11.67;96.91
50368;BME280;36281;34.132;-118.018;2024-02-14T09:39:21;100369.13;;;11.75;96.72
50368;BME280;36281;34.132;-118.018;2024-02-14T09:41:52;100369.53;;;11.65;97.00
50368;BME280;36281;34.132;-118.018;2024-02-14T09:44:26;100375.84;;;11.71;97.20
50368;BME280;36281;34.132;-118.018;2024-02-14T09:46:57;100357.69;;;11.61;97.25
50368;BME280;36281;34.132;-118.018;2024-02-14T09:49:28;100371.75;;;11.75;97.42
50368;BME280;36281;34.132;-118.018;2024-02-14T09:51:59;100360.13;;;11.89;96.60
50368;BME280;36281;34.132;-118.018;2024-02-14T09:54:31;100367.88;;;11.91;95.44
50368;BME280;36281;34.132;-118.018;2024-02-14T09:57:04;100372.59;;;11.82;95.54
50368;BME280;36281;34.132;-118.018;2024-02-14T09:59:35;100359.72;;;11.79;96.57
50368;BME280;36281;34.132;-118.018;2024-02-14T10:02:05;100368.50;;;11.80;96.62
50368;BME280;36281;34.132;-118.018;2024-02-14T10:04:34;100370.13;;;11.87;95.94
50368;BME280;36281;34.132;-118.018;2024-02-14T10:07:04;100374.22;;;11.83;96.24
50368;BME280;36281;34.132;-118.018;2024-02-14T10:09:41;100384.81;;;11.83;96.47
50368;BME280;36281;34.132;-118.018;2024-02-14T10:12:13;100373.19;;;11.91;95.77
50368;BME280;36281;34.132;-118.018;2024-02-14T10:14:44;100370.75;;;11.89;95.43
50368;BME280;36281;34.132;-118.018;2024-02-14T10:17:18;100365.63;;;11.88;95.84
50368;BME280;36281;34.132;-118.018;2024-02-14T10:19:58;100364.63;;;11.82;97.18
50368;BME280;36281;34.132;-118.018;2024-02-14T10:22:33;100365.03;;;11.86;97.09
50368;BME280;36281;34.132;-118.018;2024-02-14T10:25:03;100364.19;;;11.92;96.94
50368;BME280;36281;34.132;-118.018;2024-02-14T10:27:33;100369.91;;;11.96;95.58
50368;BME280;36281;34.132;-118.018;2024-02-14T10:30:05;100367.88;;;11.91;96.46
50368;BME280;36281;34.132;-118.018;2024-02-14T10:32:37;100370.72;;;11.96;95.73
50368;BME280;36281;34.132;-118.018;2024-02-14T10:35:08;100369.88;;;12.02;96.15
50368;BME280;36281;34.132;-118.018;2024-02-14T10:37:40;100375.41;;;12.01;96.03
50368;BME280;36281;34.132;-118.018;2024-02-14T10:40:09;100373.97;;;11.98;95.16
50368;BME280;36281;34.132;-118.018;2024-02-14T10:42:38;100378.91;;;11.88;96.42
50368;BME280;36281;34.132;-118.018;2024-02-14T10:45:10;100377.91;;;11.89;96.06
50368;BME280;36281;34.132;-118.018;2024-02-14T10:47:42;100381.38;;;11.89;96.08
50368;BME280;36281;34.132;-118.018;2024-02-14T10:50:13;100385.47;;;11.85;95.98
50368;BME280;36281;34.132;-118.018;2024-02-14T10:52:43;100382.41;;;11.88;96.05
50368;BME280;36281;34.132;-118.018;2024-02-14T10:55:13;100384.84;;;11.90;96.16
50368;BME280;36281;34.132;-118.018;2024-02-14T10:57:44;100381.56;;;11.88;95.89
50368;BME280;36281;34.132;-118.018;2024-02-14T11:00:17;100392.38;;;11.86;95.11
50368;BME280;36281;34.132;-118.018;2024-02-14T11:02:47;100383.41;;;11.87;95.21
50368;BME280;36281;34.132;-118.018;2024-02-14T11:05:19;100383.41;;;11.87;94.88
50368;BME280;36281;34.132;-118.018;2024-02-14T11:07:52;100391.34;;;11.87;94.88
50368;BME280;36281;34.132;-118.018;2024-02-14T11:10:22;100357.28;;;11.71;95.18
50368;BME280;36281;34.132;-118.018;2024-02-14T11:12:54;100389.53;;;11.88;94.78
50368;BME280;36281;34.132;-118.018;2024-02-14T11:15:25;100389.94;;;11.92;94.94
50368;BME280;36281;34.132;-118.018;2024-02-14T11:18:04;100392.00;;;11.89;94.32
50368;BME280;36281;34.132;-118.018;2024-02-14T11:20:35;100387.72;;;11.88;94.53
50368;BME280;36281;34.132;-118.018;2024-02-14T11:23:05;100392.38;;;11.93;93.41
50368;BME280;36281;34.132;-118.018;2024-02-14T11:25:40;100379.31;;;11.92;93.51
50368;BME280;36281;34.132;-118.018;2024-02-14T11:28:15;100394.00;;;11.87;93.27
50368;BME280;36281;34.132;-118.018;2024-02-14T11:30:46;100399.31;;;11.87;92.75
50368;BME280;36281;34.132;-118.018;2024-02-14T11:33:17;100396.28;;;11.84;92.29
50368;BME280;36281;34.132;-118.018;2024-02-14T11:35:48;100404.22;;;11.90;90.27
50368;BME280;36281;34.132;-118.018;2024-02-14T11:38:27;100399.72;;;11.98;89.55
50368;BME280;36281;34.132;-118.018;2024-02-14T11:40:58;100409.13;;;11.94;89.33
50368;BME280;36281;34.132;-118.018;2024-02-14T11:43:27;100404.22;;;11.90;89.45
50368;BME280;36281;34.132;-118.018;2024-02-14T11:45:58;100414.44;;;11.87;89.50
50368;BME280;36281;34.132;-118.018;2024-02-14T11:48:29;100411.19;;;11.85;89.69
50368;BME280;36281;34.132;-118.018;2024-02-14T11:50:58;100419.75;;;11.87;88.84
50368;BME280;36281;34.132;-118.018;2024-02-14T11:53:27;100417.69;;;11.82;88.53
50368;BME280;36281;34.132;-118.018;2024-02-14T11:55:56;100418.91;;;11.80;88.71
50368;BME280;36281;34.132;-118.018;2024-02-14T11:58:26;100415.22;;;11.81;88.93
50368;BME280;36281;34.132;-118.018;2024-02-14T12:00:55;100416.88;;;11.82;87.79
50368;BME280;36281;34.132;-118.018;2024-02-14T12:03:26;100419.94;;;11.79;87.86
50368;BME280;36281;34.132;-118.018;2024-02-14T12:05:56;100419.09;;;11.78;87.58
50368;BME280;36281;34.132;-118.018;2024-02-14T12:08:26;100421.16;;;11.76;88.16
50368;BME280;36281;34.132;-118.018;2024-02-14T12:10:55;100431.16;;;11.74;87.77
50368;BME280;36281;34.132;-118.018;2024-02-14T12:13:24;100437.91;;;11.70;87.98
50368;BME280;36281;34.132;-118.018;2024-02-14T12:15:53;100436.69;;;11.79;88.02
50368;BME280;36281;34.132;-118.018;2024-02-14T12:18:25;100440.75;;;11.75;87.99
50368;BME280;36281;34.132;-118.018;2024-02-14T12:21:04;100445.03;;;11.76;87.85
50368;BME280;36281;34.132;-118.018;2024-02-14T12:23:36;100448.09;;;11.73;88.73
50368;BME280;36281;34.132;-118.018;2024-02-14T12:26:05;100440.31;;;11.78;87.99
50368;BME280;36281;34.132;-118.018;2024-02-14T12:28:34;100447.28;;;11.73;88.21
50368;BME280;36281;34.132;-118.018;2024-02-14T12:31:05;100450.75;;;11.73;87.85
50368;BME280;36281;34.132;-118.018;2024-02-14T12:33:36;100451.59;;;11.74;88.00
50368;BME280;36281;34.132;-118.018;2024-02-14T12:36:06;100452.78;;;11.78;87.66